Time;durP1;ratioP1;P1;durP2;ratioP2;P2;SDS_P1;SDS_P2;PMS_P1;PMS_P2;Temp;Humidity;BMP_temperature;BMP_pressure;BME280_temperature;BME280_humidity;BME280_pressure;Samples;Min_cycle;Max_cycle;Signal;HPM_P1;HPM_P2
2021/08/11 04:01:30;;;;;;;8.20;7.00;;;18.10;99.90;;;;;;5509314;23;20548;-66
2021/08/11 04:03:56;;;;;;;8.20;7.10;;;18.00;99.90;;;;;;4995403;28;20457;-67
2021/08/11 04:06:23;;;;;;;10.73;7.00;;;18.10;99.90;;;;;;4995175;28;20461;-67
2021/08/11 04:08:50;;;;;;;9.50;7.13;;;18.00;99.90;;;;;;4995617;28;20458;-67
2021/08/11 04:11:16;;;;;;;7.20;6.60;;;18.00;99.90;;;;;;4995363;28;20470;-66
2021/08/11 04:13:43;;;;;;;9.27;8.40;;;18.00;99.90;;;;;;4995134;28;20520;-67
2021/08/11 04:16:10;;;;;;;9.03;8.13;;;18.10;99.90;;;;;;4995398;28;20453;-67
2021/08/11 04:18:38;;;;;;;8.00;7.10;;;18.00;99.90;;;;;;4996248;28;20793;-66
2021/08/11 04:21:05;;;;;;;9.00;7.40;;;18.00;99.90;;;;;;4996676;28;20484;-66
2021/08/11 04:23:31;;;;;;;11.13;7.43;;;18.00;99.90;;;;;;4997190;28;20460;-66
2021/08/11 04:25:58;;;;;;;9.93;7.77;;;18.00;99.90;;;;;;4997546;28;20453;-66
2021/08/11 04:28:26;;;;;;;7.27;6.67;;;18.00;99.90;;;;;;4997469;28;20548;-66
2021/08/11 04:30:53;;;;;;;7.00;6.30;;;18.00;99.90;;;;;;4997124;28;20853;-67
2021/08/11 04:33:20;;;;;;;10.30;6.90;;;18.00;99.90;;;;;;4996955;28;20941;-67
2021/08/11 04:35:48;;;;;;;7.60;6.93;;;17.90;99.90;;;;;;4997044;28;20453;-67
2021/08/11 04:38:16;;;;;;;8.17;7.47;;;17.90;99.90;;;;;;4996877;28;20457;-67
2021/08/11 04:40:43;;;;;;;7.83;7.13;;;17.90;99.90;;;;;;4997145;28;20508;-66
2021/08/11 04:43:10;;;;;;;10.63;7.50;;;17.90;99.90;;;;;;4996463;28;20483;-66
2021/08/11 04:45:37;;;;;;;10.70;7.93;;;17.80;99.90;;;;;;4996596;28;20458;-66
2021/08/11 04:48:04;;;;;;;8.57;7.13;;;17.70;99.90;;;;;;4996368;28;20458;-67
2021/08/11 04:50:31;;;;;;;11.67;6.70;;;17.70;99.90;;;;;;4996584;28;20516;-66
2021/08/11 04:52:59;;;;;;;9.53;6.73;;;17.70;99.90;;;;;;4995787;28;20454;-66
2021/08/11 04:55:26;;;;;;;7.20;6.50;;;17.70;99.90;;;;;;4995881;28;20480;-66
2021/08/11 04:57:52;;;;;;;8.60;6.97;;;17.70;99.90;;;;;;4995765;28;20454;-67
2021/08/11 05:00:20;;;;;;;7.13;6.50;;;17.70;99.90;;;;;;4996101;28;20481;-66
2021/08/11 05:02:46;;;;;;;8.90;7.20;;;17.70;99.90;;;;;;4999666;28;20551;-66
2021/08/11 05:05:13;;;;;;;12.70;7.20;;;17.70;99.90;;;;;;4999414;28;20457;-67
2021/08/11 05:07:40;;;;;;;7.80;7.20;;;17.80;99.90;;;;;;4999844;28;20460;-67
2021/08/11 05:10:09;;;;;;;6.53;5.93;;;17.90;99.90;;;;;;4999480;28;20458;-67
2021/08/11 05:12:36;;;;;;;6.97;5.80;;;18.00;99.90;;;;;;4998812;28;20454;-66
2021/08/11 05:15:04;;;;;;;8.67;7.27;;;18.00;99.90;;;;;;4999314;28;20453;-66
2021/08/11 05:17:30;;;;;;;7.60;6.90;;;18.10;99.90;;;;;;5000163;28;20458;-67
2021/08/11 05:19:57;;;;;;;7.70;6.97;;;18.10;99.90;;;;;;4999395;28;20458;-67
2021/08/11 05:22:24;;;;;;;8.63;7.13;;;18.10;99.90;;;;;;5000387;28;20488;-66
2021/08/11 05:24:51;;;;;;;10.10;6.90;;;18.10;99.90;;;;;;4999676;28;20533;-67
2021/08/11 05:27:20;;;;;;;7.57;7.07;;;18.10;99.90;;;;;;4998751;28;20481;-67
2021/08/11 05:29:46;;;;;;;7.40;6.80;;;18.10;99.90;;;;;;4998412;28;20552;-67
2021/08/11 05:32:14;;;;;;;7.87;7.10;;;18.20;99.90;;;;;;4997707;28;20469;-67
2021/08/11 05:34:40;;;;;;;10.07;8.40;;;18.30;99.90;;;;;;4998320;28;20450;-67
2021/08/11 05:37:07;;;;;;;8.77;7.97;;;18.20;99.90;;;;;;4998631;28;20462;-67
2021/08/11 05:39:34;;;;;;;9.33;7.97;;;18.30;99.90;;;;;;4997624;28;20460;-67
2021/08/11 05:42:01;;;;;;;10.13;7.80;;;18.40;99.90;;;;;;4997826;28;20504;-67
2021/08/11 05:44:29;;;;;;;7.40;6.70;;;18.50;99.90;;;;;;4997759;28;20456;-67
2021/08/11 05:46:56;;;;;;;7.70;7.00;;;18.70;99.90;;;;;;4997433;28;20461;-67
2021/08/11 05:49:22;;;;;;;9.53;7.10;;;19.10;99.90;;;;;;4997055;28;20840;-68
2021/08/11 05:51:49;;;;;;;7.80;7.20;;;19.40;99.90;;;;;;4997212;28;20473;-68
2021/08/11 05:54:16;;;;;;;7.00;6.30;;;19.80;99.90;;;;;;4997232;28;20465;-67
2021/08/11 05:56:43;;;;;;;6.70;6.20;;;20.10;99.90;;;;;;4996980;28;20442;-67
2021/08/11 05:59:10;;;;;;;6.77;6.20;;;20.40;99.90;;;;;;4996837;28;20461;-67
2021/08/11 06:01:38;;;;;;;7.87;6.37;;;20.90;99.90;;;;;;4996494;28;21103;-67
2021/08/11 06:04:04;;;;;;;7.40;5.90;;;21.30;99.90;;;;;;4996817;28;20438;-67
2021/08/11 06:06:32;;;;;;;8.07;6.10;;;21.70;99.90;;;;;;4996629;28;20461;-67
2021/08/11 06:08:59;;;;;;;7.87;6.40;;;22.10;99.90;;;;;;4996734;28;20442;-67
2021/08/11 06:11:26;;;;;;;6.80;6.20;;;22.60;99.90;;;;;;4996379;28;20477;-67
2021/08/11 06:13:52;;;;;;;6.20;5.70;;;23.10;99.90;;;;;;4996908;28;20461;-68
2021/08/11 06:16:19;;;;;;;7.93;6.10;;;23.60;99.90;;;;;;4997064;28;20458;-67
2021/08/11 06:18:47;;;;;;;6.10;5.50;;;24.00;99.90;;;;;;4996811;28;20948;-67
2021/08/11 06:21:14;;;;;;;6.87;5.20;;;24.50;99.90;;;;;;4997099;28;20560;-67
2021/08/11 06:23:41;;;;;;;6.17;5.57;;;24.80;99.90;;;;;;4996786;28;20458;-68
2021/08/11 06:26:08;;;;;;;5.77;5.33;;;25.10;99.90;;;;;;4997075;28;20494;-67
2021/08/11 06:28:35;;;;;;;6.63;5.97;;;25.50;99.90;;;;;;4996709;28;20438;-67
2021/08/11 06:31:02;;;;;;;6.33;5.60;;;25.80;99.90;;;;;;4997129;28;20477;-67
2021/08/11 06:33:28;;;;;;;5.83;5.33;;;26.20;99.90;;;;;;4999698;28;20450;-67
2021/08/11 06:35:56;;;;;;;6.20;5.10;;;26.50;99.90;;;;;;5000886;28;20449;-67
2021/08/11 06:38:23;;;;;;;6.03;5.43;;;26.70;99.90;;;;;;5000894;28;20462;-67
2021/08/11 06:40:50;;;;;;;6.00;5.40;;;27.00;99.90;;;;;;4998228;28;20477;-67
2021/08/11 06:43:17;;;;;;;6.20;5.60;;;27.20;99.90;;;;;;4996589;28;20829;-67
2021/08/11 06:45:44;;;;;;;6.10;5.50;;;27.60;99.90;;;;;;4996424;28;20936;-67
2021/08/11 06:48:11;;;;;;;5.67;5.20;;;27.90;99.90;;;;;;4997060;28;20458;-67
2021/08/11 06:50:38;;;;;;;7.30;5.97;;;28.20;99.90;;;;;;4997018;28;21004;-67
2021/08/11 06:53:06;;;;;;;8.33;5.10;;;28.50;99.90;;;;;;4996938;28;20541;-68
2021/08/11 06:55:32;;;;;;;5.97;5.50;;;28.70;99.90;;;;;;4997165;28;20476;-68
2021/08/11 06:57:59;;;;;;;6.60;6.00;;;29.10;99.90;;;;;;4996799;28;20442;-67
2021/08/11 07:00:26;;;;;;;6.93;5.73;;;29.20;99.90;;;;;;4996049;28;20461;-67
2021/08/11 07:02:52;;;;;;;7.63;5.37;;;29.20;99.90;;;;;;4996529;28;20462;-67
2021/08/11 07:05:19;;;;;;;6.60;6.00;;;29.50;99.90;;;;;;4996469;28;20445;-67
2021/08/11 07:07:46;;;;;;;5.03;4.53;;;29.50;99.90;;;;;;4996180;28;20461;-68
2021/08/11 07:10:15;;;;;;;5.90;4.80;;;29.80;99.90;;;;;;4997154;28;20461;-67
2021/08/11 07:12:42;;;;;;;6.27;5.87;;;30.00;99.90;;;;;;4996027;28;20490;-67
2021/08/11 07:15:10;;;;;;;5.27;4.87;;;29.70;99.90;;;;;;4996021;28;20945;-67
2021/08/11 07:17:37;;;;;;;5.97;5.53;;;30.00;99.90;;;;;;4996441;28;20813;-68
2021/08/11 07:20:10;;;;;;;8.03;6.00;;;30.00;99.30;;;;;;4996343;28;20457;-68
2021/08/11 07:22:37;;;;;;;6.47;5.60;;;30.10;98.80;;;;;;4995777;28;20484;-67
2021/08/11 07:25:04;;;;;;;7.13;6.40;;;30.20;98.10;;;;;;4995622;28;20481;-68
2021/08/11 07:27:32;;;;;;;8.97;5.67;;;29.70;98.50;;;;;;4995644;28;20461;-68
2021/08/11 07:29:58;;;;;;;7.07;5.50;;;29.20;99.40;;;;;;4995431;28;20461;-68
2021/08/11 07:32:25;;;;;;;8.03;4.97;;;28.70;99.90;;;;;;4995044;28;20981;-67
2021/08/11 07:34:52;;;;;;;8.10;5.53;;;28.70;99.90;;;;;;4995495;28;20803;-67
2021/08/11 07:37:18;;;;;;;5.50;5.00;;;28.60;99.90;;;;;;4995679;28;20454;-67
2021/08/11 07:39:45;;;;;;;6.00;5.50;;;28.70;99.90;;;;;;4995533;28;20465;-67
2021/08/11 07:42:12;;;;;;;6.33;5.47;;;28.80;99.90;;;;;;4995583;28;20489;-67
2021/08/11 07:44:40;;;;;;;8.33;5.20;;;29.20;99.90;;;;;;4995183;28;20462;-67
2021/08/11 07:47:07;;;;;;;6.50;5.80;;;29.60;99.90;;;;;;4995933;28;20461;-67
2021/08/11 07:49:33;;;;;;;4.97;4.57;;;30.00;99.90;;;;;;4996496;28;20916;-67
2021/08/11 07:52:00;;;;;;;5.57;4.73;;;30.50;98.50;;;;;;4996626;28;20497;-67
2021/08/11 07:54:27;;;;;;;7.33;4.90;;;30.80;97.80;;;;;;4996274;28;20462;-67
2021/08/11 07:56:53;;;;;;;4.73;4.33;;;30.90;97.70;;;;;;4996242;28;20465;-67
2021/08/11 07:59:20;;;;;;;4.60;4.30;;;30.60;96.60;;;;;;4996191;28;20449;-67
2021/08/11 08:01:48;;;;;;;4.33;4.03;;;30.90;95.10;;;;;;4995783;28;20492;-67
2021/08/11 08:04:15;;;;;;;8.33;4.43;;;31.30;94.60;;;;;;4996168;28;20453;-67
2021/08/11 08:06:42;;;;;;;4.87;4.10;;;32.00;94.30;;;;;;4995597;28;20454;-66
2021/08/11 08:09:08;;;;;;;5.70;4.27;;;32.40;93.60;;;;;;4994786;28;20480;-65
2021/08/11 08:11:35;;;;;;;5.40;4.60;;;32.10;92.10;;;;;;4994742;28;20477;-66
2021/08/11 08:14:02;;;;;;;5.73;5.13;;;32.50;92.30;;;;;;4994840;28;20457;-68
2021/08/11 08:16:28;;;;;;;7.73;3.90;;;33.20;89.50;;;;;;4994829;28;20470;-68
2021/08/11 08:18:56;;;;;;;5.40;4.33;;;33.30;90.70;;;;;;4994810;28;20454;-68
2021/08/11 08:21:23;;;;;;;5.10;4.60;;;33.50;88.70;;;;;;4994613;28;20488;-67
2021/08/11 08:23:50;;;;;;;4.90;4.50;;;33.80;85.50;;;;;;4994789;28;20481;-68
2021/08/11 08:26:16;;;;;;;6.10;4.83;;;34.00;85.20;;;;;;4994666;28;20956;-68
2021/08/11 08:28:48;;;;;;;5.13;4.73;;;34.30;84.10;;;;;;4994792;28;20454;-68
2021/08/11 08:31:14;;;;;;;4.93;4.53;;;34.00;82.00;;;;;;4994610;28;20532;-67
2021/08/11 08:33:41;;;;;;;5.77;5.27;;;33.70;81.70;;;;;;4994522;28;20453;-68
2021/08/11 08:36:10;;;;;;;4.50;4.20;;;33.50;81.60;;;;;;4998195;28;20457;-69
2021/08/11 08:38:37;;;;;;;5.03;4.53;;;33.50;81.10;;;;;;4998471;28;20457;-69
2021/08/11 08:41:04;;;;;;;4.87;4.47;;;33.70;81.40;;;;;;4998149;28;20836;-69
2021/08/11 08:43:31;;;;;;;6.03;4.70;;;34.20;80.70;;;;;;4997970;28;20995;-69
2021/08/11 08:45:58;;;;;;;6.43;4.67;;;34.70;78.90;;;;;;4998245;28;20453;-69
2021/08/11 08:48:25;;;;;;;9.37;4.70;;;35.00;78.00;;;;;;4998263;28;20489;-69
2021/08/11 08:50:52;;;;;;;5.53;5.00;;;35.10;75.20;;;;;;4998204;28;20481;-68
2021/08/11 08:53:23;;;;;;;7.47;4.43;;;35.20;75.10;;;;;;4997733;28;20940;-68
2021/08/11 08:55:51;;;;;;;5.00;4.47;;;35.50;74.70;;;;;;4998654;28;20448;-68
2021/08/11 08:58:18;;;;;;;7.93;4.50;;;35.70;73.60;;;;;;4998438;28;20487;-68
2021/08/11 09:00:47;;;;;;;5.67;4.63;;;35.80;72.00;;;;;;4998009;28;20846;-67
2021/08/11 09:03:14;;;;;;;7.00;5.17;;;36.20;72.30;;;;;;4998094;28;20485;-69
2021/08/11 09:05:40;;;;;;;4.77;4.27;;;36.10;74.50;;;;;;4998087;28;20513;-68
2021/08/11 09:08:09;;;;;;;5.50;4.73;;;36.40;70.00;;;;;;4998556;28;20490;-68
2021/08/11 09:10:40;;;;;;;6.60;4.30;;;36.80;71.70;;;;;;4998369;28;20531;-68
2021/08/11 09:13:14;;;;;;;5.73;5.13;;;37.00;68.00;;;;;;4998498;28;20477;-69
2021/08/11 09:15:42;;;;;;;6.63;5.10;;;37.30;67.90;;;;;;4998277;28;20454;-68
2021/08/11 09:18:14;;;;;;;8.03;4.80;;;37.30;68.60;;;;;;4998251;28;20506;-69
2021/08/11 09:20:43;;;;;;;5.07;4.77;;;37.20;70.40;;;;;;4998274;28;20488;-68
2021/08/11 09:23:10;;;;;;;5.23;4.60;;;37.30;67.20;;;;;;4998705;28;20539;-68
2021/08/11 09:25:56;;;;;;;6.23;5.37;;;37.20;64.70;;;;;;4998497;28;20462;-68
2021/08/11 09:28:23;;;;;;;5.30;4.80;;;37.30;65.30;;;;;;4999223;28;20446;-68
2021/08/11 09:30:50;;;;;;;8.30;5.03;;;37.50;69.00;;;;;;4998006;28;20535;-67
2021/08/11 09:33:22;;;;;;;5.13;4.70;;;36.70;64.70;;;;;;4998070;28;20484;-68
2021/08/11 09:35:49;;;;;;;5.07;4.60;;;36.90;65.00;;;;;;4998355;28;20447;-69
2021/08/11 09:38:16;;;;;;;6.87;5.10;;;37.40;64.10;;;;;;4997758;28;20465;-69
2021/08/11 09:40:46;;;;;;;5.37;4.93;;;37.50;63.50;;;;;;4997944;28;20477;-68
2021/08/11 09:43:16;;;;;;;4.87;4.50;;;37.20;62.90;;;;;;4998070;28;20528;-69
2021/08/11 09:45:45;;;;;;;7.63;4.80;;;37.50;66.80;;;;;;4997934;28;20556;-69
2021/08/11 09:48:11;;;;;;;5.23;4.83;;;37.80;63.70;;;;;;4998062;28;20455;-69
2021/08/11 09:50:47;;;;;;;4.77;4.20;;;38.40;64.30;;;;;;4998957;28;20843;-68
2021/08/11 09:53:17;;;;;;;6.13;4.77;;;38.40;61.40;;;;;;4998431;28;20450;-69
2021/08/11 09:56:02;;;;;;;5.13;4.57;;;38.40;59.00;;;;;;4998089;28;20466;-69
2021/08/11 09:58:33;;;;;;;4.80;4.40;;;38.60;58.70;;;;;;4997957;28;20443;-69
2021/08/11 10:01:00;;;;;;;5.00;4.60;;;38.60;59.00;;;;;;4997346;28;20488;-69
2021/08/11 10:03:27;;;;;;;5.03;4.53;;;38.80;60.70;;;;;;4997768;28;20478;-69
2021/08/11 10:05:54;;;;;;;7.63;4.50;;;38.30;60.60;;;;;;4997556;28;20511;-69
2021/08/11 10:08:28;;;;;;;5.13;4.20;;;38.40;58.30;;;;;;4997476;28;20553;-69
2021/08/11 10:10:55;;;;;;;4.50;4.10;;;38.40;58.30;;;;;;4997228;28;20478;-69
2021/08/11 10:13:24;;;;;;;6.90;5.30;;;38.70;56.80;;;;;;4996847;28;20460;-68
2021/08/11 10:15:51;;;;;;;4.30;3.90;;;39.10;57.00;;;;;;4997187;28;20458;-69
2021/08/11 10:18:22;;;;;;;4.53;4.10;;;38.90;58.50;;;;;;4997324;28;20449;-68
2021/08/11 10:20:51;;;;;;;3.73;3.53;;;38.80;62.50;;;;;;4997801;28;20477;-69
2021/08/11 10:23:19;;;;;;;8.00;4.70;;;39.50;63.10;;;;;;4998076;28;20504;-69
2021/08/11 10:25:47;;;;;;;4.07;3.77;;;40.10;56.30;;;;;;4997958;28;20198;-69
2021/08/11 10:28:14;;;;;;;4.40;4.10;;;40.40;57.50;;;;;;4998054;28;20198;-70
2021/08/11 10:30:42;;;;;;;7.33;3.63;;;40.40;56.80;;;;;;4997704;28;20228;-69
2021/08/11 10:33:10;;;;;;;4.90;4.60;;;39.80;57.10;;;;;;4997532;28;20196;-69
2021/08/11 10:35:39;;;;;;;4.40;4.00;;;39.80;56.80;;;;;;4997774;28;20213;-69
2021/08/11 10:38:06;;;;;;;5.60;4.13;;;40.10;55.70;;;;;;4997363;28;20214;-69
2021/08/11 10:40:33;;;;;;;4.80;4.40;;;39.80;57.00;;;;;;4996725;28;20237;-69
2021/08/11 10:43:00;;;;;;;4.70;4.03;;;39.30;56.90;;;;;;4997007;28;20481;-68
2021/08/11 10:45:28;;;;;;;4.63;4.20;;;38.50;59.40;;;;;;4996614;28;20459;-69
2021/08/11 10:47:56;;;;;;;5.53;4.90;;;37.90;57.30;;;;;;4996366;28;20558;-69
2021/08/11 10:50:23;;;;;;;7.00;4.60;;;37.50;58.60;;;;;;4996337;28;20486;-69
2021/08/11 10:53:08;;;;;;;4.90;4.50;;;36.80;59.70;;;;;;4995949;28;20995;-69
2021/08/11 10:55:47;;;;;;;5.30;4.80;;;36.40;60.50;;;;;;4997606;28;20443;-69
2021/08/11 10:58:40;;;;;;;6.73;4.40;;;36.00;61.80;;;;;;4995855;28;20437;-69
2021/08/11 11:01:28;;;;;;;4.90;4.50;;;34.90;64.00;;;;;;4996609;28;20488;-67
2021/08/11 11:03:56;;;;;;;6.20;5.17;;;34.10;65.70;;;;;;5001241;28;20482;-68
2021/08/11 11:06:23;;;;;;;4.43;4.13;;;33.10;68.60;;;;;;4997955;28;20462;-67
2021/08/11 11:08:51;;;;;;;7.43;5.20;;;32.50;71.50;;;;;;4996706;28;20453;-67
2021/08/11 11:11:40;;;;;;;7.47;4.63;;;31.70;72.80;;;;;;4995980;28;20474;-67
2021/08/11 11:14:28;;;;;;;6.97;5.00;;;31.30;77.80;;;;;;4996280;28;20442;-68
2021/08/11 11:17:13;;;;;;;4.77;4.37;;;31.60;75.70;;;;;;4996854;28;20485;-68
2021/08/11 11:20:25;;;;;;;8.23;5.47;;;32.30;76.20;;;;;;4997179;28;20445;-67
2021/08/11 11:22:59;;;;;;;5.27;4.80;;;32.90;78.30;;;;;;4996420;28;20799;-68
2021/08/11 11:26:04;;;;;;;5.10;4.50;;;33.20;72.80;;;;;;4996565;28;20449;-67
2021/08/11 11:28:53;;;;;;;8.00;4.50;;;33.80;71.80;;;;;;4974560;28;20457;-68
2021/08/11 11:31:38;;;;;;;4.70;4.30;;;34.40;70.50;;;;;;4997167;28;20813;-69
2021/08/11 11:34:27;;;;;;;4.40;4.00;;;35.00;69.90;;;;;;4997510;28;20441;-69
2021/08/11 11:37:27;;;;;;;6.43;4.70;;;35.40;66.90;;;;;;4997720;28;20454;-69
2021/08/11 11:40:18;;;;;;;5.37;4.87;;;35.20;66.60;;;;;;4997678;28;20488;-68
2021/08/11 11:42:45;;;;;;;4.90;4.13;;;34.60;64.20;;;;;;5003741;28;20449;-68
2021/08/11 11:45:14;;;;;;;4.73;4.30;;;34.50;69.00;;;;;;5005132;28;20476;-67
2021/08/11 11:48:12;;;;;;;5.00;4.50;;;34.40;68.90;;;;;;5002296;28;20894;-68
2021/08/11 11:50:44;;;;;;;6.70;4.47;;;33.90;68.50;;;;;;4995416;28;20887;-68
2021/08/11 11:53:21;;;;;;;5.10;4.57;;;32.90;68.40;;;;;;4996172;28;20496;-68
2021/08/11 11:55:49;;;;;;;5.30;4.00;;;32.50;71.40;;;;;;4996385;28;20437;-68
2021/08/11 11:58:17;;;;;;;5.20;4.80;;;32.20;73.90;;;;;;4996644;28;20484;-68
2021/08/11 12:00:45;;;;;;;5.13;4.63;;;32.10;75.40;;;;;;4995942;28;20489;-67
2021/08/11 12:03:13;;;;;;;4.97;4.40;;;31.70;75.40;;;;;;4995309;28;20504;-67
2021/08/11 12:05:46;;;;;;;5.13;4.30;;;31.30;75.50;;;;;;4995888;28;20478;-67
2021/08/11 12:08:13;;;;;;;5.60;4.93;;;30.80;78.70;;;;;;4994859;28;20461;-68
2021/08/11 12:10:40;;;;;;;5.80;3.83;;;30.60;80.00;;;;;;4994575;28;20474;-67
2021/08/11 12:13:08;;;;;;;4.33;4.00;;;30.50;82.20;;;;;;4994996;28;20441;-67
2021/08/11 12:15:36;;;;;;;4.17;3.77;;;30.70;85.10;;;;;;4994831;28;20465;-67
2021/08/11 12:18:17;;;;;;;4.77;4.13;;;30.50;80.00;;;;;;4995104;28;20438;-67
2021/08/11 12:20:46;;;;;;;4.40;4.00;;;30.60;81.70;;;;;;4994596;28;20584;-67
2021/08/11 12:23:23;;;;;;;4.60;4.20;;;30.60;80.60;;;;;;4994480;28;20454;-67
2021/08/11 12:25:51;;;;;;;4.80;4.50;;;30.50;83.30;;;;;;4994879;28;20532;-66
2021/08/11 12:28:21;;;;;;;4.90;3.73;;;31.00;83.30;;;;;;4995506;28;20462;-67
2021/08/11 12:30:54;;;;;;;4.37;4.07;;;31.40;80.70;;;;;;4995155;28;20473;-67
2021/08/11 12:33:21;;;;;;;5.00;4.50;;;31.60;80.10;;;;;;4996083;28;20476;-67
2021/08/11 12:35:50;;;;;;;4.40;4.10;;;31.60;82.60;;;;;;4998968;28;20458;-68
2021/08/11 12:38:33;;;;;;;3.80;3.50;;;31.80;78.20;;;;;;4994608;28;20532;-67
2021/08/11 12:41:17;;;;;;;3.60;3.40;;;32.10;76.00;;;;;;4992869;28;20473;-67
2021/08/11 12:43:45;;;;;;;5.80;3.53;;;31.80;75.50;;;;;;4994056;28;20972;-67
2021/08/11 12:46:12;;;;;;;5.20;3.20;;;32.00;77.20;;;;;;4994483;28;20464;-67
2021/08/11 12:48:39;;;;;;;4.77;3.90;;;32.00;76.10;;;;;;4994389;28;20469;-66
2021/08/11 12:51:08;;;;;;;3.90;3.60;;;31.70;75.20;;;;;;4994137;28;20474;-67
2021/08/11 12:53:36;;;;;;;3.90;3.33;;;31.50;79.80;;;;;;4994848;28;20457;-67
2021/08/11 12:56:11;;;;;;;5.17;4.67;;;31.70;81.80;;;;;;4993781;28;20810;-67
2021/08/11 12:58:59;;;;;;;4.70;3.90;;;31.70;75.80;;;;;;4994486;28;20901;-67
2021/08/11 13:01:37;;;;;;;6.03;4.07;;;31.50;77.70;;;;;;4994368;28;20493;-67
2021/08/11 13:04:07;;;;;;;5.00;3.77;;;31.70;75.20;;;;;;4994531;28;20471;-67
2021/08/11 13:06:43;;;;;;;5.13;4.07;;;32.10;79.40;;;;;;4994202;28;20544;-68
2021/08/11 13:09:23;;;;;;;4.47;4.13;;;32.60;79.70;;;;;;4994906;28;20438;-68
2021/08/11 13:11:55;;;;;;;6.93;4.40;;;32.90;75.60;;;;;;4994476;28;20477;-68
2021/08/11 13:14:46;;;;;;;4.33;3.93;;;32.70;73.90;;;;;;4994927;28;20445;-67
2021/08/11 13:17:15;;;;;;;3.80;3.50;;;32.90;76.10;;;;;;4995323;28;20459;-67
2021/08/11 13:19:42;;;;;;;8.23;4.63;;;33.10;76.20;;;;;;4994999;28;20457;-67
2021/08/11 13:22:19;;;;;;;3.67;3.37;;;33.30;75.60;;;;;;4996245;28;20852;-67
2021/08/11 13:24:46;;;;;;;4.17;3.50;;;33.50;77.30;;;;;;4998605;28;20465;-68
2021/08/11 13:27:12;;;;;;;4.63;4.23;;;33.60;71.40;;;;;;4997725;28;20963;-67
2021/08/11 13:29:39;;;;;;;4.90;3.80;;;33.50;72.20;;;;;;4997827;28;20994;-68
2021/08/11 13:32:08;;;;;;;4.13;3.57;;;33.30;74.10;;;;;;4998484;28;20480;-68
2021/08/11 13:34:35;;;;;;;4.00;3.63;;;33.50;74.30;;;;;;4998761;28;20445;-67
2021/08/11 13:37:02;;;;;;;6.33;4.47;;;33.60;73.00;;;;;;4998343;28;20453;-67
2021/08/11 13:39:29;;;;;;;4.20;3.90;;;33.40;73.60;;;;;;4998617;28;20464;-68
2021/08/11 13:41:55;;;;;;;4.60;4.20;;;33.30;69.30;;;;;;4998425;28;20481;-67
2021/08/11 13:44:22;;;;;;;4.30;4.00;;;33.20;70.70;;;;;;4998582;28;20507;-67
2021/08/11 13:46:49;;;;;;;4.07;3.67;;;32.90;69.20;;;;;;4998733;28;20458;-67
2021/08/11 13:49:17;;;;;;;6.87;4.50;;;32.60;69.60;;;;;;4997861;28;20463;-68
2021/08/11 13:51:43;;;;;;;4.40;4.10;;;32.20;69.10;;;;;;4998119;28;20484;-68
2021/08/11 13:54:10;;;;;;;4.30;4.00;;;32.00;71.50;;;;;;4998028;28;20460;-68
2021/08/11 13:56:37;;;;;;;4.17;3.77;;;31.90;71.60;;;;;;4998898;28;20468;-68
2021/08/11 13:59:03;;;;;;;7.60;4.13;;;31.90;76.00;;;;;;4998561;28;20952;-68
2021/08/11 14:01:30;;;;;;;4.97;4.57;;;32.00;72.80;;;;;;4997678;28;20486;-68
2021/08/11 14:03:57;;;;;;;5.30;4.90;;;31.90;77.20;;;;;;4998225;28;20477;-68
2021/08/11 14:06:25;;;;;;;4.90;4.50;;;32.00;70.10;;;;;;5001521;28;20454;-68
2021/08/11 14:08:52;;;;;;;4.87;4.50;;;32.10;68.40;;;;;;5000161;28;20916;-68
2021/08/11 14:11:18;;;;;;;4.73;4.37;;;32.30;71.00;;;;;;4999862;28;20477;-68
2021/08/11 14:13:45;;;;;;;4.43;4.13;;;32.30;72.60;;;;;;4997431;28;20460;-68
2021/08/11 14:16:12;;;;;;;4.43;4.10;;;32.30;69.70;;;;;;4997637;28;20504;-66
2021/08/11 14:18:39;;;;;;;4.57;4.27;;;32.00;70.10;;;;;;4997026;28;20453;-67
2021/08/11 14:21:06;;;;;;;7.03;4.30;;;31.70;71.20;;;;;;4997531;28;21019;-67
2021/08/11 14:23:34;;;;;;;4.67;4.33;;;31.70;71.30;;;;;;4997578;28;20458;-67
2021/08/11 14:26:01;;;;;;;4.97;4.53;;;31.40;71.60;;;;;;4996923;28;20477;-68
2021/08/11 14:28:27;;;;;;;4.40;4.10;;;31.40;73.10;;;;;;4997680;28;20453;-68
2021/08/11 14:30:54;;;;;;;4.90;3.83;;;31.30;73.10;;;;;;4997547;28;20473;-67
2021/08/11 14:33:21;;;;;;;4.33;4.00;;;31.20;71.40;;;;;;4998099;28;20434;-67
2021/08/11 14:35:47;;;;;;;4.40;4.17;;;31.40;71.50;;;;;;4998110;28;20450;-67
2021/08/11 14:38:14;;;;;;;4.87;4.50;;;31.30;69.90;;;;;;4998003;28;20465;-68
2021/08/11 14:40:42;;;;;;;4.50;4.20;;;31.20;70.10;;;;;;4998113;28;20481;-68
2021/08/11 14:43:09;;;;;;;4.60;4.30;;;31.30;72.00;;;;;;4997797;28;20453;-67
2021/08/11 14:45:36;;;;;;;5.13;4.67;;;31.50;68.50;;;;;;4997163;28;20581;-68
2021/08/11 14:48:03;;;;;;;4.63;4.23;;;31.50;67.20;;;;;;4998167;28;20454;-68
2021/08/11 14:50:30;;;;;;;8.47;5.03;;;31.40;67.60;;;;;;4997607;28;20937;-68
2021/08/11 14:52:57;;;;;;;5.00;4.70;;;31.50;67.60;;;;;;4997141;28;20460;-68
2021/08/11 14:55:23;;;;;;;4.60;4.30;;;31.50;66.00;;;;;;5000986;28;20469;-68
2021/08/11 14:57:52;;;;;;;5.50;5.00;;;31.60;66.50;;;;;;5001153;28;20480;-68
2021/08/11 15:00:20;;;;;;;5.60;5.10;;;31.50;65.80;;;;;;5003126;28;20442;-67
2021/08/11 15:02:46;;;;;;;4.90;4.43;;;31.50;66.20;;;;;;5003136;28;20438;-68
2021/08/11 15:05:13;;;;;;;4.80;4.50;;;31.40;64.50;;;;;;5001191;28;20481;-68
2021/08/11 15:07:40;;;;;;;5.40;4.30;;;31.30;66.30;;;;;;5000982;28;20453;-68
2021/08/11 15:10:07;;;;;;;5.73;5.13;;;31.50;65.90;;;;;;5000592;28;20948;-68
2021/08/11 15:12:34;;;;;;;7.80;5.60;;;31.50;65.10;;;;;;5000553;28;20509;-67
2021/08/11 15:15:02;;;;;;;4.77;4.47;;;31.60;67.00;;;;;;5000357;28;20779;-67
2021/08/11 15:17:28;;;;;;;5.37;4.97;;;31.60;66.20;;;;;;4999421;28;20461;-67
2021/08/11 15:19:55;;;;;;;4.60;4.20;;;31.60;65.60;;;;;;4997744;28;20460;-67
2021/08/11 15:22:22;;;;;;;4.77;4.47;;;31.60;62.20;;;;;;4998264;28;20466;-67
2021/08/11 15:24:49;;;;;;;8.80;5.30;;;31.50;65.60;;;;;;4997709;28;20478;-67
2021/08/11 15:27:16;;;;;;;5.07;4.67;;;31.40;65.00;;;;;;4997836;28;20477;-67
2021/08/11 15:29:43;;;;;;;5.33;4.90;;;31.30;65.60;;;;;;4998586;28;20458;-68
2021/08/11 15:32:11;;;;;;;5.67;4.80;;;31.10;65.70;;;;;;4996912;28;20530;-67
2021/08/11 15:34:37;;;;;;;10.70;5.70;;;30.80;67.40;;;;;;4996586;28;20450;-67
2021/08/11 15:37:04;;;;;;;5.17;4.77;;;30.70;66.50;;;;;;4997385;28;20964;-67
2021/08/11 15:39:31;;;;;;;4.93;4.53;;;30.40;65.80;;;;;;4999120;28;20466;-66
2021/08/11 15:41:58;;;;;;;5.10;4.70;;;30.40;66.40;;;;;;4996277;28;20481;-66
2021/08/11 15:44:25;;;;;;;6.57;4.97;;;30.30;71.10;;;;;;4996148;28;20824;-66
2021/08/11 15:46:51;;;;;;;6.10;4.93;;;30.40;68.90;;;;;;4997782;28;20465;-66
2021/08/11 15:49:19;;;;;;;5.40;5.00;;;30.60;70.40;;;;;;4997827;28;20457;-66
2021/08/11 15:51:46;;;;;;;4.77;4.33;;;30.80;68.00;;;;;;4996603;28;20481;-66
2021/08/11 15:54:13;;;;;;;5.03;4.63;;;30.90;69.50;;;;;;4996272;28;20480;-66
2021/08/11 15:56:40;;;;;;;5.23;4.70;;;30.80;69.60;;;;;;4997051;28;20457;-66
2021/08/11 15:59:07;;;;;;;5.40;5.00;;;30.80;72.30;;;;;;4995679;28;20945;-66
2021/08/11 16:01:33;;;;;;;6.67;6.13;;;30.70;70.30;;;;;;4995470;28;20575;-66
2021/08/11 16:04:00;;;;;;;7.67;7.00;;;30.70;68.60;;;;;;4996534;28;20453;-66
2021/08/11 16:06:28;;;;;;;6.20;5.70;;;30.60;67.30;;;;;;4996286;28;20474;-66
2021/08/11 16:08:55;;;;;;;6.40;5.80;;;30.50;68.10;;;;;;4995614;28;20464;-67
2021/08/11 16:11:21;;;;;;;8.77;5.60;;;30.30;70.00;;;;;;4995972;28;20480;-66
2021/08/11 16:13:48;;;;;;;6.27;5.77;;;30.20;71.30;;;;;;4996186;28;20457;-66
2021/08/11 16:16:15;;;;;;;8.53;7.73;;;30.00;70.50;;;;;;4996155;28;20472;-66
2021/08/11 16:18:42;;;;;;;5.37;4.73;;;29.90;70.20;;;;;;4996106;28;20465;-66
2021/08/11 16:21:08;;;;;;;5.10;4.70;;;29.70;70.10;;;;;;4996531;28;20477;-66
2021/08/11 16:23:36;;;;;;;4.97;4.57;;;29.60;71.40;;;;;;4994982;28;20806;-66
2021/08/11 16:26:03;;;;;;;4.43;4.13;;;29.60;72.30;;;;;;4995834;28;20481;-67
2021/08/11 16:28:30;;;;;;;5.90;5.37;;;29.60;69.50;;;;;;4995605;28;20827;-67
2021/08/11 16:30:56;;;;;;;5.00;4.60;;;29.50;71.80;;;;;;4995567;28;20485;-66
2021/08/11 16:33:23;;;;;;;10.83;7.67;;;29.50;72.70;;;;;;4995423;28;20458;-66
2021/08/11 16:35:50;;;;;;;4.83;4.43;;;29.50;72.80;;;;;;4995314;28;20449;-66
2021/08/11 16:38:17;;;;;;;5.33;4.90;;;29.40;72.00;;;;;;4994977;28;20891;-67
2021/08/11 16:40:45;;;;;;;5.80;5.30;;;29.40;70.10;;;;;;4994940;28;20838;-67
2021/08/11 16:43:11;;;;;;;9.70;6.97;;;29.30;70.40;;;;;;4995463;28;20469;-69
2021/08/11 16:45:38;;;;;;;5.53;5.03;;;29.20;72.30;;;;;;4995055;28;20474;-67
2021/08/11 16:48:06;;;;;;;5.17;4.73;;;29.00;73.60;;;;;;4994392;28;20956;-68
2021/08/11 16:50:33;;;;;;;4.13;3.83;;;29.00;73.00;;;;;;4994464;28;20937;-68
2021/08/11 16:53:00;;;;;;;5.40;5.03;;;29.00;71.80;;;;;;4999030;28;20454;-69
2021/08/11 16:55:27;;;;;;;5.90;5.17;;;29.00;71.80;;;;;;5001187;28;20449;-69